Jutai, Brazil
Current Conditions -  °F | °C
As of 7:00 PM on Tuesday 21 Oct 2014 (Local Time) from SBTT Reporting Station
Few Clouds Few Clouds  
Wind Chill: 75°   Ceiling: Unl
Heat Index: 75°   Visibility: 6mi
Dew Point: 73°   Wind: 2mph
Humidity: 94%   Direction: 60°ENE
Pressure: 29.85"   Gusts: NA
Location:  5.52°S, 69.14°W
Report Text: SBTT 212300Z 06002KT 9999 FEW010 24/23 Q1011
Loading
Personal Weather Stations






























Interactive Weather Map
Tropical Storm Tracking
New forecast layout! Learn more

10-Day Weather Forecast

Advertisements
Track Severe Weather on mobile